Tiempo atmosférico en la estación meteorológica de Benabarre, Huesca (765 m.)



Fecha
DESCASC
Temp. máxima en grados centígrados (hora)
DESCASC
Temp. mínima en grados centígrados (hora)
DESCASC
Temp. media en grados centígrados
DESCASC
Racha de viento máxima en m/sg (hora)
DESCASC
Velocidad máxima media en intervalos de 10 minutos(hora)
DESCASC
Precipitaciones diarias en mm
DESCASC
Precipitaciones de 00:00 a 06:00 en mm
DESCASC
Precipitaciones de 06:00 a 12:00 en mm
DESCASC
Precipitaciones de 12:00 a 18:00 en mm
DESCASC
Precipitaciones de 18:00 a 24:00 en mm
DESCASC
16-01-2020 12.8 (15:30) -0.1 (07:40) 6.4 5.56 (15:50) 3.61 (15:50) 0 0 0 0 0
15-01-2020 10 (15:40) -1.6 (07:20) 4.2 8.06 (13:00) 5.28 (13:40) 0 0 0 0 0
14-01-2020 9.5 (16:30) -2.6 (08:00) 3.5 4.17 (13:30) 3.06 (15:50) 0 0 0 0 0
13-01-2020 9.8 (14:40) -2.8 (05:00) 3.5 5.56 (17:20) 3.61 (16:50) 0 0 0 0 0
12-01-2020 9.9 (15:00) -3.7 (-00:0) 3.1 4.72 (15:10) 3.61 (01:50) 0 0 0 0 0
11-01-2020 8.6 (13:10) -2.6 (-00:0) 3 5.83 (14:10) 3.89 (17:00) 0 0 0 0 0
10-01-2020 9.5 (14:20) -0.1 (00:00) 4.7 5.83 (15:00) 3.89 (14:50) 0 0 0 0 0
09-01-2020 12.6 (15:20) 0.9 (00:00) 6.8 5.83 (18:10) 4.44 (18:10) 0 0 0 0 0
08-01-2020 12.4 (14:20) 0.8 (00:00) 6.6 6.39 (12:10) 3.89 (12:10) 0 0 0 0 0
07-01-2020 7.6 (15:10) -3.2 (-00:0) 2.2 4.72 (12:40) 3.61 (16:20) 0 0 0 0 0
06-01-2020 10.7 (13:20) -0.7 (-00:0) 5 5 (17:20) 3.33 (17:20) 0 0 0 0 0
05-01-2020 10.3 (16:30) -1.3 (-00:0) 4.5 4.72 (00:10) 3.33 (02:20) 0 0 0 0 0
04-01-2020 7.8 (14:40) -0.9 (-00:0) 3.5 5.28 (22:30) 3.89 (15:20) 0 0 0 0 0
03-01-2020 4.8 (13:20) -1.3 (-00:0) 1.8 5.83 (20:20) 3.33 (22:20) 0 0 0 0 0
02-01-2020 9.8 (15:00) -1.3 (-00:0) 4.3 2.78 (01:50) 2.5 (17:50) 0 0 0 0 0
01-01-2020 6.8 (15:10) -1.4 (-00:0) 2.7 4.17 (07:40) 2.78 (07:40) 0 0 0 0 0
31-12-2019 3.2 (16:20) -0.2 (00:00) 1.5 3.89 (05:40) 2.5 (00:20) 0 0 0 0 0
30-12-2019 -- (--) -- (--) -- -- (--) -- (--) -- 0 0 0 --
29-12-2019 9.6 (15:30) 0.3 (00:00) 5 3.89 (19:40) 2.78 (19:40) 0 0 0 0 0
28-12-2019 13.7 (15:10) 1.6 (00:00) 7.6 3.89 (01:10) 3.06 (01:20) 0 0 0 0 0
27-12-2019 11 (13:30) 0.9 (00:00) 5.9 5 (15:40) 3.61 (05:10) 0 0 0 0 0
26-12-2019 15.9 (13:40) 2.3 (00:00) 9.1 6.39 (15:50) 4.44 (15:50) 0 0 0 0 0
25-12-2019 14.6 (13:30) 3.4 (00:00) 9 3.89 (15:00) 3.06 (22:40) 0 0 0 0 0
24-12-2019 12.3 (15:20) 2.6 (00:00) 7.5 4.72 (15:50) 3.89 (17:20) 0 0 0 0 0
23-12-2019 11.1 (14:50) 2.8 (00:00) 7 10.28 (01:40) 6.67 (00:30) 0 0 0 0 0
22-12-2019 10.2 (13:50) 6.5 (00:00) 8.3 18.89 (03:50) 11.67 (04:00) 0.4 0 0 0.4 0
21-12-2019 10.4 (20:10) 5.8 (00:00) 8.1 18.33 (20:10) 11.11 (20:30) 16.4 1 0 11.2 4.2
20-12-2019 10.2 (14:30) 6.5 (00:00) 8.3 11.67 (04:20) 6.11 (04:00) 25.2 8.6 12.8 0.4 3.4

Gráficas

Temp. máximas Temp. mínimas Temp. medias Precipitaciones Rachas de viento máximas Velocidades máximas media en intervalos de 10 minutos

Datos horarios

Fecha y hora oficial Temperatura (ºC) Velocidad del viento (km/h) Dirección del viento Racha (km/h) Dirección de racha Precipitación (mm) Presión (hPa) Tendencia (hPa) Humedad (%)
2020-01-18 23:00:00 4.9 10 Este 16 Este 0 -- -- 83
2020-01-18 22:00:00 4.7 5 Este 17 Este 0 -- -- 83
2020-01-18 21:00:00 5 2 Este 6 Nordeste 0.4 -- -- 81
2020-01-18 20:00:00 5.9 0 Calma 5 Sudoeste 0 -- -- 74
2020-01-18 19:00:00 6.8 2 Sudeste 10 Este 0 -- -- 63
2020-01-18 18:00:00 7.5 5 Este 12 Sudoeste 0 -- -- 60
2020-01-18 17:00:00 8.4 7 Sur 15 Sur 0 -- -- 57
2020-01-18 16:00:00 9.6 9 Sur 13 Sur 0 -- -- 48
2020-01-18 15:00:00 10.5 5 Sudoeste 9 Oeste 0 -- -- 42
2020-01-18 14:00:00 9.5 6 Sudoeste 10 Oeste 0 -- -- 44
2020-01-18 13:00:00 8.4 5 Sur 10 Este 0 -- -- 49
2020-01-18 12:00:00 6 5 Sudeste 17 Sudeste 0 -- -- 56
2020-01-18 11:00:00 4.3 10 Este 19 Sur 0 -- -- 68
2020-01-18 10:00:00 2.1 9 Sur 18 Nordeste 0 -- -- 76
2020-01-18 09:00:00 0.7 6 Norte 9 Norte 0 -- -- 81
2020-01-18 08:00:00 1.3 6 Oeste 9 Oeste 0 -- -- 78
2020-01-18 07:00:00 0.6 3 Este 8 Este 0 -- -- 81
2020-01-18 06:00:00 0.7 5 Norte 10 Oeste 0 -- -- 80
2020-01-18 05:00:00 -0.1 6 Norte 8 Norte 0 -- -- 81
2020-01-18 04:00:00 -1.1 4 Norte 15 Norte 0 -- -- 81
2020-01-18 03:00:00 -1.4 8 Norte 12 Norte 0 -- -- 85
2020-01-18 02:00:00 -1 8 Norte 14 Norte 0 -- -- 83
2020-01-18 01:00:00 -0.6 8 Norte 13 Norte 0 -- -- 81
2020-01-18 00:00:00 0.7 9 Norte 17 Noroeste 0 -- -- 77
2020-01-17 23:00:00 2.6 12 Noroeste 19 Oeste 0 -- -- 73
2020-01-17 22:00:00 3.8 14 Noroeste 24 Oeste 0 -- -- 69
2020-01-17 21:00:00 4.8 16 Noroeste 23 Noroeste 0 -- -- 61
2020-01-17 20:00:00 5.7 15 Noroeste 21 Oeste 0 -- -- 60
2020-01-17 19:00:00 6.3 13 Noroeste 29 Noroeste 0 -- -- 62
2020-01-17 18:00:00 7.7 21 Noroeste 37 Oeste 0 -- -- 57
2020-01-17 17:00:00 9.1 24 Noroeste 42 Oeste 0 -- -- 55
2020-01-17 16:00:00 9.6 28 Oeste 45 Oeste 0 -- -- 53
2020-01-17 15:00:00 9 19 Norte 46 Oeste 0 -- -- 64
2020-01-17 14:00:00 10.2 28 Oeste 54 Oeste 0 -- -- 68
2020-01-17 13:00:00 9.8 21 Oeste 40 Oeste 0 -- -- 72
2020-01-17 12:00:00 9.1 21 Oeste 36 Oeste 0 -- -- 74
2020-01-17 11:00:00 7.8 12 Noroeste 18 Oeste 0 -- -- 84
2020-01-17 10:00:00 5.9 5 Oeste 10 Noroeste 0 -- -- 94
2020-01-17 09:00:00 3.6 6 Norte 10 Noroeste 0 -- -- 96
2020-01-17 08:00:00 4.9 5 Oeste 10 Norte 0 -- -- 96
2020-01-17 07:00:00 4.9 0 Calma 8 Norte 0.2 -- -- 95
2020-01-17 06:00:00 5.2 2 Norte 13 Norte 0 -- -- 94
2020-01-17 05:00:00 4.1 5 Noroeste 12 Norte 0.2 -- -- 94
2020-01-17 04:00:00 3.3 6 Norte 9 Norte 0 -- -- 92
2020-01-17 03:00:00 3.5 2 Oeste 10 Norte 0 -- -- 91
2020-01-17 02:00:00 3.9 7 Norte 11 Norte 0 -- -- 89
2020-01-17 01:00:00 3.8 9 Norte 13 Norte 0 -- -- 90
2020-01-17 00:00:00 3.9 6 Norte 12 Norte 0 -- -- 90
2020-01-16 23:00:00 4.2 6 Norte 10 Norte 0 -- -- 88
2020-01-16 22:00:00 5.5 3 Este 7 Nordeste 0 -- -- 85
2020-01-16 21:00:00 6.8 2 Nordeste 8 Nordeste 0 -- -- 82
2020-01-16 20:00:00 6.6 5 Nordeste 9 Norte 0 -- -- 80
2020-01-16 19:00:00 6.2 5 Norte 9 Noroeste 0 -- -- 79
2020-01-16 18:00:00 9.8 6 Noroeste 11 Noroeste 0 -- -- 67
2020-01-16 17:00:00 12.3 9 Oeste 17 Oeste 0 -- -- 60
2020-01-16 16:00:00 12.7 13 Oeste 20 Oeste 0 -- -- 60
2020-01-16 15:00:00 12.4 11 Oeste 17 Oeste 0 -- -- 58
2020-01-16 14:00:00 11.6 10 Oeste 15 Oeste 0 -- -- 54
2020-01-16 13:00:00 10.2 8 Noroeste 12 Noroeste 0 -- -- 63
2020-01-16 12:00:00 10.2 3 Sudoeste 9 Este 0 -- -- 65
2020-01-16 11:00:00 7.3 3 Sur 7 Sudoeste 0 -- -- 76
2020-01-16 10:00:00 3.6 3 Noroeste 12 Noroeste 0 -- -- 88
2020-01-16 09:00:00 0.6 9 Norte 12 Norte 0 -- -- 92
2020-01-16 08:00:00 -0.1 6 Norte 12 Norte 0 -- -- 94
2020-01-16 07:00:00 0.4 8 Norte 14 Norte 0 -- -- 93
2020-01-16 06:00:00 0.2 9 Norte 12 Norte 0 -- -- 93
2020-01-16 05:00:00 0.6 10 Norte 13 Norte 0 -- -- 93
2020-01-16 04:00:00 1.3 8 Norte 14 Norte 0 -- -- 92
2020-01-16 03:00:00 0.7 10 Norte 12 Norte 0 -- -- 91
2020-01-16 02:00:00 1.2 5 Norte 11 Norte 0 -- -- 91
2020-01-16 01:00:00 1.5 5 Norte 13 Norte 0 -- -- 91
2020-01-16 00:00:00 2 8 Norte 11 Norte 0 -- -- 88
2020-01-15 23:00:00 2.4 8 Norte 11 Norte 0 -- -- 88
2020-01-15 22:00:00 2.7 5 Norte 12 Norte 0 -- -- 87
2020-01-15 21:00:00 2.7 7 Norte 10 Norte 0 -- -- 86
2020-01-15 20:00:00 3.8 8 Norte 10 Norte 0 -- -- 82
2020-01-15 19:00:00 5.1 10 Noroeste 13 Noroeste 0 -- -- 81
2020-01-15 18:00:00 6.2 10 Noroeste 18 Noroeste 0 -- -- 77
2020-01-15 17:00:00 8.4 12 Noroeste 19 Noroeste 0 -- -- 67
2020-01-15 16:00:00 9.5 10 Noroeste 20 Oeste 0 -- -- 63
2020-01-15 15:00:00 9.2 11 Noroeste 22 Noroeste 0 -- -- 64
2020-01-15 14:00:00 8.6 13 Noroeste 29 Noroeste 0 -- -- 67
2020-01-15 13:00:00 7.7 16 Noroeste 29 Noroeste 0 -- -- 66
2020-01-15 12:00:00 5.7 13 Noroeste 20 Noroeste 0 -- -- 64
2020-01-15 11:00:00 4.1 0 Calma 4 Sudoeste 0 -- -- 71
2020-01-15 10:00:00 -0.5 2 Este 6 Norte 0 -- -- 86
2020-01-15 09:00:00 -0.7 8 Norte 12 Norte 0 -- -- 85
2020-01-15 08:00:00 -1.5 4 Norte 10 Norte 0 -- -- 88
2020-01-15 07:00:00 -1.5 2 Nordeste 6 Norte 0 -- -- 87
2020-01-15 06:00:00 -1.3 0 Calma 10 Norte 0 -- -- 85
2020-01-15 05:00:00 -0.7 7 Norte 12 Norte 0 -- -- 82
2020-01-15 04:00:00 -1.3 9 Norte 11 Norte 0 -- -- 83
2020-01-15 03:00:00 -1 8 Norte 11 Norte 0 -- -- 80
2020-01-15 02:00:00 -0.6 9 Norte 15 Noroeste 0 -- -- 79
2020-01-15 01:00:00 -0.5 9 Norte 12 Norte 0 -- -- 77
2020-01-15 00:00:00 -0.2 9 Norte 13 Norte 0 -- -- 74
2020-01-14 23:00:00 0.5 9 Norte 13 Norte 0 -- -- 71
2020-01-14 22:00:00 0 10 Norte 13 Norte 0 -- -- 77
2020-01-14 21:00:00 0.6 9 Norte 13 Norte 0 -- -- 74
2020-01-14 20:00:00 1.3 10 Norte 15 Norte 0 -- -- 75
2020-01-14 19:00:00 2.1 8 Norte 12 Norte 0 -- -- 71
2020-01-14 18:00:00 5.7 7 Norte 10 Norte 0 -- -- 60
2020-01-14 17:00:00 9.3 4 Oeste 12 Noroeste 0 -- -- 47
2020-01-14 16:00:00 8.9 10 Noroeste 14 Noroeste 0 -- -- 46
2020-01-14 15:00:00 8.6 6 Noroeste 13 Oeste 0 -- -- 51
2020-01-14 14:00:00 7.8 7 Noroeste 15 Oeste 0 -- -- 54
2020-01-14 13:00:00 7.3 7 Noroeste 12 Noroeste 0 -- -- 57
2020-01-14 12:00:00 6.3 7 Oeste 12 Sudoeste 0 -- -- 57
2020-01-14 11:00:00 5.4 4 Sudeste 6 Este 0 -- -- 60
2020-01-14 10:00:00 2.2 3 Este 6 Norte 0 -- -- 71
2020-01-14 09:00:00 -1.8 2 Nordeste 11 Norte 0 -- -- 83
2020-01-14 08:00:00 -2.6 4 Norte 12 Norte 0 -- -- 84
2020-01-14 07:00:00 -2.2 8 Norte 13 Norte 0 -- -- 83
2020-01-14 06:00:00 -1.7 8 Norte 12 Noroeste 0 -- -- 83
2020-01-14 05:00:00 -1.9 9 Norte 12 Norte 0 -- -- 84
2020-01-14 04:00:00 -1.4 6 Norte 10 Norte 0 -- -- 83
2020-01-14 03:00:00 -1.2 6 Norte 12 Norte 0 -- -- 82
2020-01-14 02:00:00 -1.3 7 Norte 11 Norte 0 -- -- 81
2020-01-14 01:00:00 -0.6 6 Norte 12 Norte 0 -- -- 77
2020-01-14 00:00:00 -0.3 8 Norte 12 Noroeste 0 -- -- 75
2020-01-13 23:00:00 0 9 Norte 13 Norte 0 -- -- 77
2020-01-13 22:00:00 -0.3 9 Norte 13 Norte 0 -- -- 76
2020-01-13 21:00:00 -0.4 9 Norte 12 Norte 0 -- -- 74
2020-01-13 20:00:00 0.2 7 Norte 13 Norte 0 -- -- 70
2020-01-13 19:00:00 1.9 6 Norte 10 Norte 0 -- -- 64
2020-01-13 18:00:00 5.1 4 Nordeste 20 Oeste 0 -- -- 55
2020-01-13 17:00:00 6.7 12 Noroeste 18 Noroeste 0 -- -- 51
2020-01-13 16:00:00 7.9 7 Noroeste 10 Noroeste 0 -- -- 55
2020-01-13 15:00:00 8.8 9 Oeste 12 Oeste 0 -- -- 53
2020-01-13 14:00:00 8.4 3 Sur 8 Sur 0 -- -- 51
2020-01-13 13:00:00 6.8 3 Sur 6 Sur 0 -- -- 59
2020-01-13 12:00:00 5.1 4 Sudeste 7 Sur 0 -- -- 62
2020-01-13 11:00:00 3.9 3 Sudoeste 5 Oeste 0 -- -- 69
2020-01-13 10:00:00 0.7 2 Este 10 Noroeste 0 -- -- 81
2020-01-13 09:00:00 -2.3 8 Norte 12 Noroeste 0 -- -- 81
2020-01-13 08:00:00 -2.8 9 Norte 12 Norte 0 -- -- 83
2020-01-13 07:00:00 -2.8 9 Norte 12 Norte 0 -- -- 84
2020-01-13 06:00:00 -2.4 10 Norte 14 Norte 0 -- -- 84
2020-01-13 05:00:00 -2.8 10 Norte 13 Noroeste 0 -- -- 87
2020-01-13 04:00:00 -2.3 8 Noroeste 13 Norte 0 -- -- 86
2020-01-13 03:00:00 -2.3 9 Norte 13 Norte 0 -- -- 87
2020-01-13 02:00:00 -2.2 8 Norte 12 Norte 0 -- -- 84
2020-01-13 01:00:00 -1.7 4 Norte 12 Norte 0 -- -- 84
2020-01-13 00:00:00 -1.7 9 Norte 12 Norte 0 -- -- 85
2020-01-12 23:00:00 -1.5 7 Norte 10 Norte 0 -- -- 87
2020-01-12 22:00:00 -0.9 5 Norte 12 Norte 0 -- -- 86
2020-01-12 21:00:00 -0.3 8 Noroeste 14 Norte 0 -- -- 88
2020-01-12 20:00:00 0.1 9 Norte 12 Norte 0 -- -- 85
2020-01-12 19:00:00 2 4 Norte 9 Este 0 -- -- 81
2020-01-12 18:00:00 5.1 8 Este 14 Sudeste 0 -- -- 72
2020-01-12 17:00:00 7.4 9 Sudeste 14 Sur 0 -- -- 66
2020-01-12 16:00:00 9.2 7 Sur 17 Este 0 -- -- 57
2020-01-12 15:00:00 9.9 10 Este 15 Este 0 -- -- 51
2020-01-12 14:00:00 8.8 6 Sur 12 Sudeste 0 -- -- 46
2020-01-12 13:00:00 7.7 7 Sudeste 12 Sudeste 0 -- -- 62
2020-01-12 12:00:00 6.1 4 Sudeste 8 Este 0 -- -- 65
2020-01-12 11:00:00 3.3 5 Sudeste 8 Sudeste 0 -- -- 68
2020-01-12 10:00:00 0 3 Sudeste 5 Este 0 -- -- 80
2020-01-12 09:00:00 -3.3 2 Nordeste 9 Norte 0 -- -- 82
2020-01-12 08:00:00 -3.2 4 Norte 10 Norte 0 -- -- 84
2020-01-12 07:00:00 -3.1 8 Norte 10 Norte 0 -- -- 87
2020-01-12 06:00:00 -2.9 7 Norte 10 Norte 0 -- -- 87
2020-01-12 05:00:00 -2.5 3 Norte 8 Norte 0 -- -- 87
2020-01-12 04:00:00 -2.1 5 Norte 12 Norte 0 -- -- 86
2020-01-12 03:00:00 -1.8 10 Norte 12 Noroeste 0 -- -- 85
2020-01-12 02:00:00 -1.5 10 Norte 15 Norte 0 -- -- 84
2020-01-12 01:00:00 -1.7 11 Norte 13 Norte 0 -- -- 85
2020-01-12 00:00:00 -1.3 9 Norte 14 Noroeste 0 -- -- 89
2020-01-11 23:00:00 0.2 9 Noroeste 12 Noroeste 0 -- -- 93
2020-01-11 22:00:00 -0.5 7 Norte 10 Norte 0 -- -- 90
2020-01-11 21:00:00 0.2 8 Norte 10 Norte 0 -- -- 88
2020-01-11 20:00:00 1.4 6 Oeste 11 Noroeste 0 -- -- 88
2020-01-11 19:00:00 1.7 5 Noroeste 13 Noroeste 0 -- -- 83
2020-01-11 18:00:00 4.3 13 Noroeste 16 Noroeste 0 -- -- 74
2020-01-11 17:00:00 6.3 14 Noroeste 19 Noroeste 0 -- -- 64
2020-01-11 16:00:00 8.1 9 Oeste 19 Oeste 0 -- -- 47
2020-01-11 15:00:00 8.2 11 Noroeste 21 Noroeste 0 -- -- 46
2020-01-11 14:00:00 8.3 11 Noroeste 18 Oeste 0 -- -- 48
2020-01-11 13:00:00 8 8 Noroeste 14 Noroeste 0 -- -- 39
2020-01-11 12:00:00 5.8 10 Noroeste 15 Oeste 0 -- -- 52
2020-01-11 11:00:00 4.7 8 Noroeste 11 Oeste 0 -- -- 63
2020-01-11 10:00:00 1.8 0 Calma 13 Noroeste 0 -- -- 83
2020-01-11 09:00:00 -2.3 11 Norte 15 Norte 0 -- -- 86
2020-01-11 08:00:00 -1.4 4 Noroeste 14 Norte 0 -- -- 91
2020-01-11 07:00:00 -1.8 8 Norte 12 Norte 0 -- -- 81
2020-01-11 06:00:00 -1.5 9 Norte 12 Norte 0 -- -- 81
2020-01-11 05:00:00 -1 8 Norte 18 Norte 0 -- -- 81
2020-01-11 04:00:00 -0.8 6 Nordeste 12 Norte 0 -- -- 84
2020-01-11 03:00:00 -0.4 10 Norte 15 Norte 0 -- -- 84
2020-01-11 02:00:00 -0.4 9 Norte 16 Norte 0 -- -- 85
2020-01-11 01:00:00 0.6 8 Noroeste 17 Norte 0 -- -- 85
2020-01-11 00:00:00 -0.1 6 Norte 15 Norte 0 -- -- 89
2020-01-10 23:00:00 1.4 11 Norte 16 Norte 0 -- -- 87
2020-01-10 22:00:00 1.1 9 Norte 14 Norte 0 -- -- 93
2020-01-10 21:00:00 1.3 5 Noroeste 13 Norte 0 -- -- 91
2020-01-10 20:00:00 1.9 6 Norte 10 Norte 0 -- -- 90
2020-01-10 19:00:00 2.8 7 Norte 11 Norte 0 -- -- 84
2020-01-10 18:00:00 6.1 4 Noroeste 9 Noroeste 0 -- -- 72
2020-01-10 17:00:00 8.4 8 Oeste 13 Sudoeste 0 -- -- 63
2020-01-10 16:00:00 8.9 9 Sudoeste 20 Sudoeste 0 -- -- 67
2020-01-10 15:00:00 8.7 13 Sudoeste 21 Sudoeste 0 -- -- 71
2020-01-10 14:00:00 9 10 Sudoeste 19 Noroeste 0 -- -- 70
2020-01-10 13:00:00 8.6 7 Este 14 Sudeste 0 -- -- 78
2020-01-10 12:00:00 6.2 0 Calma 6 Nordeste 0 -- -- 100
2020-01-10 11:00:00 3.3 5 Oeste 17 Oeste 0 -- -- 100
2020-01-10 10:00:00 2.7 7 Noroeste 13 Noroeste 0 -- -- 99
2020-01-10 09:00:00 3.1 4 Noroeste 14 Sudeste 0 -- -- 99
2020-01-10 08:00:00 3.1 9 Este 15 Este 0 -- -- 99
2020-01-10 07:00:00 3.3 12 Este 16 Este 0 -- -- 99
2020-01-10 06:00:00 3.6 2 Este 12 Oeste 0 -- -- 98
2020-01-10 05:00:00 3.7 7 Noroeste 13 Oeste 0 -- -- 98
2020-01-10 04:00:00 3.9 10 Noroeste 14 Oeste 0 -- -- 96
2020-01-10 03:00:00 4.6 8 Noroeste 14 Oeste 0 -- -- 93
2020-01-10 02:00:00 4.9 8 Oeste 12 Oeste 0 -- -- 92
2020-01-10 01:00:00 5 6 Sudoeste 9 Sudoeste 0 -- -- 90
2020-01-10 00:00:00 5.1 6 Oeste 10 Noroeste 0 -- -- 88
2020-01-09 23:00:00 4.9 4 Este 8 Norte 0 -- -- 88
2020-01-09 22:00:00 5.2 0 Calma 6 Norte 0 -- -- 86
2020-01-09 21:00:00 5 4 Norte 6 Norte 0 -- -- 89
2020-01-09 20:00:00 5.2 3 Sudeste 9 Este 0 -- -- 90
2020-01-09 19:00:00 6 2 Sudeste 21 Noroeste 0 -- -- 88
2020-01-09 18:00:00 6.8 14 Noroeste 20 Noroeste 0 -- -- 85
2020-01-09 17:00:00 10.1 8 Sur 14 Sudeste 0 -- -- 60
2020-01-09 16:00:00 11.5 9 Sur 15 Sur 0 -- -- 59
2020-01-09 15:00:00 12.4 5 Sudoeste 12 Oeste 0 -- -- 57
2020-01-09 14:00:00 11.9 5 Oeste 13 Sudeste 0 -- -- 63
2020-01-09 13:00:00 10.9 6 Este 12 Sudeste 0 -- -- 68
2020-01-09 12:00:00 9.4 5 Este 12 Sudeste 0 -- -- 72
2020-01-09 11:00:00 7.4 4 Sudeste 6 Sudeste 0 -- -- 78
2020-01-09 10:00:00 4.2 0 Calma 10 Norte 0 -- -- 93
2020-01-09 09:00:00 1.2 7 Norte 10 Norte 0 -- -- 95
2020-01-09 08:00:00 0.9 7 Norte 12 Norte 0 -- -- 96
2020-01-09 07:00:00 1.4 5 Norte 12 Norte 0 -- -- 95
2020-01-09 06:00:00 1.6 9 Norte 12 Norte 0 -- -- 95
2020-01-09 05:00:00 1.9 7 Norte 13 Norte 0 -- -- 95
2020-01-09 04:00:00 1.8 6 Norte 10 Norte 0 -- -- 94
2020-01-09 03:00:00 1.9 6 Norte 11 Norte 0 -- -- 94
2020-01-09 02:00:00 2.1 6 Norte 10 Norte 0 -- -- 93
2020-01-09 01:00:00 2.2 8 Norte 13 Norte 0 -- -- 93
2020-01-09 00:00:00 2.5 5 Norte 11 Norte 0 -- -- 92
2020-01-08 23:00:00 2.5 10 Norte 13 Norte 0 -- -- 92
2020-01-08 22:00:00 3.3 3 Nordeste 16 Norte 0 -- -- 90
2020-01-08 21:00:00 3.8 11 Norte 15 Norte 0 -- -- 88
2020-01-08 20:00:00 4.4 7 Norte 11 Norte 0 -- -- 88
2020-01-08 19:00:00 4.9 7 Norte 11 Norte 0 -- -- 86
2020-01-08 18:00:00 8.4 4 Este 10 Sudeste 0 -- -- 78
2020-01-08 17:00:00 10.6 9 Sudeste 12 Sudeste 0 -- -- 67
2020-01-08 16:00:00 11.7 7 Sudeste 15 Sudeste 0 -- -- 60
2020-01-08 15:00:00 12 10 Sur 15 Sur 0 -- -- 54
2020-01-08 14:00:00 12.2 12 Este 18 Este 0 -- -- 54
2020-01-08 13:00:00 11.4 12 Sudeste 23 Este 0 -- -- 59
2020-01-08 12:00:00 10.2 12 Sudeste 20 Sudeste 0 -- -- 66
2020-01-08 11:00:00 8.7 11 Este 17 Este 0 -- -- 62
2020-01-08 10:00:00 5.8 8 Este 12 Sudeste 0 -- -- 71
2020-01-08 09:00:00 1.5 5 Este 6 Este 0 -- -- 86
2020-01-08 08:00:00 1.5 0 Calma 6 Norte 0 -- -- 84
2020-01-08 07:00:00 1.7 2 Sudeste 10 Norte 0 -- -- 84
2020-01-08 06:00:00 2.2 6 Norte 10 Norte 0 -- -- 82
2020-01-08 05:00:00 2.4 5 Noroeste 14 Norte 0 -- -- 80
2020-01-08 04:00:00 2.1 6 Norte 14 Norte 0 -- -- 80
2020-01-08 03:00:00 1.9 5 Norte 12 Noroeste 0 -- -- 81
2020-01-08 02:00:00 1.5 9 Norte 12 Norte 0 -- -- 84
2020-01-08 01:00:00 1 9 Norte 13 Norte 0 -- -- 87
2020-01-08 00:00:00 0.8 4 Norte 9 Noroeste 0 -- -- 91
2020-01-07 23:00:00 0.9 6 Noroeste 9 Noroeste 0 -- -- 97
2020-01-07 22:00:00 0.1 6 Norte 10 Norte 0 -- -- 99
2020-01-07 21:00:00 -0.4 9 Norte 12 Norte 0 -- -- 98
2020-01-07 20:00:00 0.5 9 Este 13 Este 0 -- -- 98
2020-01-07 19:00:00 0.3 5 Sudeste 7 Oeste 0 -- -- 98
2020-01-07 18:00:00 0.7 4 Oeste 15 Noroeste 0 -- -- 97
2020-01-07 17:00:00 1.5 9 Noroeste 17 Noroeste 0 -- -- 95
2020-01-07 16:00:00 7.1 6 Oeste 9 Oeste 0 -- -- 77
2020-01-07 15:00:00 7.3 4 Sur 8 Este 0 -- -- 77
2020-01-07 14:00:00 6.5 4 Sudoeste 11 Sudoeste 0 -- -- 77
2020-01-07 13:00:00 3.6 8 Oeste 17 Noroeste 0 -- -- 85
2020-01-07 12:00:00 1.9 3 Sudoeste 8 Sudoeste 0 -- -- 99
2020-01-07 11:00:00 -0.1 5 Oeste 13 Noroeste 0 -- -- 99
2020-01-07 10:00:00 -1.4 6 Oeste 9 Oeste 0 -- -- 100
2020-01-07 09:00:00 -3.1 0 Calma 6 Sudeste 0 -- -- 99
2020-01-07 08:00:00 -2.1 2 Este 10 Noroeste 0 -- -- 98
2020-01-07 07:00:00 -2.5 7 Noroeste 15 Noroeste 0 -- -- 98
2020-01-07 06:00:00 -1.6 10 Noroeste 15 Noroeste 0 -- -- 99
2020-01-07 05:00:00 -1.4 10 Noroeste 15 Noroeste 0 -- -- 99
2020-01-07 04:00:00 -2.2 3 Noroeste 6 Noroeste 0 -- -- 99
2020-01-07 03:00:00 -1.7 5 Oeste 8 Oeste 0 -- -- 99
2020-01-07 02:00:00 -1.5 4 Noroeste 8 Noroeste 0 -- -- 98
2020-01-07 01:00:00 -1.1 4 Noroeste 14 Oeste 0 -- -- 97
2020-01-07 00:00:00 0.3 5 Norte 13 Noroeste 0 -- -- 96
2020-01-06 23:00:00 0.6 7 Norte 10 Norte 0 -- -- 95
2020-01-06 22:00:00 0.5 7 Noroeste 14 Noroeste 0 -- -- 96
2020-01-06 21:00:00 0.9 4 Noroeste 10 Noroeste 0 -- -- 95
2020-01-06 20:00:00 2.3 5 Noroeste 12 Noroeste 0 -- -- 91
2020-01-06 19:00:00 3.6 6 Noroeste 14 Noroeste 0 -- -- 86
2020-01-06 18:00:00 5.4 10 Noroeste 18 Oeste 0 -- -- 83
2020-01-06 17:00:00 8.7 8 Oeste 12 Oeste 0 -- -- 68
2020-01-06 16:00:00 9.4 8 Oeste 15 Oeste 0 -- -- 66
2020-01-06 15:00:00 9.7 9 Oeste 16 Oeste 0 -- -- 65
2020-01-06 14:00:00 9.9 8 Noroeste 13 Oeste 0 -- -- 60
2020-01-06 13:00:00 10.2 5 Sudoeste 10 Sur 0 -- -- 57
2020-01-06 12:00:00 9.1 3 Sur 6 Este 0 -- -- 63
2020-01-06 11:00:00 6.7 3 Sudeste 6 Este 0 -- -- 72
2020-01-06 10:00:00 3.2 3 Sudoeste 9 Norte 0 -- -- 87